sensor_id;sensor_type;location;lat;lon;timestamp;noise_LAeq;noise_LA_min;noise_LA_max;noise_LA01;noise_LA95
72466;Laerm;60471;52.150;4.508;2022-10-17T00:00:29;51.49;44.21;64.64;;
72466;Laerm;60471;52.150;4.508;2022-10-17T00:02:56;51.75;42.96;64.10;;
72466;Laerm;60471;52.150;4.508;2022-10-17T00:05:22;49.59;41.71;62.27;;
72466;Laerm;60471;52.150;4.508;2022-10-17T00:07:48;50.92;43.78;60.03;;
72466;Laerm;60471;52.150;4.508;2022-10-17T00:10:15;49.93;43.23;59.27;;
72466;Laerm;60471;52.150;4.508;2022-10-17T00:12:41;49.12;42.25;59.01;;
72466;Laerm;60471;52.150;4.508;2022-10-17T00:15:09;49.74;43.14;59.27;;
72466;Laerm;60471;52.150;4.508;2022-10-17T00:17:36;49.36;41.97;60.80;;
72466;Laerm;60471;52.150;4.508;2022-10-17T00:20:03;50.31;44.88;63.22;;
72466;Laerm;60471;52.150;4.508;2022-10-17T00:22:30;48.89;42.23;58.05;;
72466;Laerm;60471;52.150;4.508;2022-10-17T00:24:56;49.26;41.46;58.80;;
72466;Laerm;60471;52.150;4.508;2022-10-17T00:27:22;48.88;43.30;58.52;;
72466;Laerm;60471;52.150;4.508;2022-10-17T00:29:50;48.70;40.93;58.47;;
72466;Laerm;60471;52.150;4.508;2022-10-17T00:32:18;48.29;41.64;57.86;;
72466;Laerm;60471;52.150;4.508;2022-10-17T00:34:45;49.07;42.30;58.55;;
72466;Laerm;60471;52.150;4.508;2022-10-17T00:37:11;49.63;40.96;59.84;;
72466;Laerm;60471;52.150;4.508;2022-10-17T00:39:38;48.46;41.86;57.75;;
72466;Laerm;60471;52.150;4.508;2022-10-17T00:42:04;50.65;42.47;62.10;;
72466;Laerm;60471;52.150;4.508;2022-10-17T00:47:00;49.56;41.69;59.56;;
72466;Laerm;60471;52.150;4.508;2022-10-17T00:49:31;48.60;41.08;58.14;;
72466;Laerm;60471;52.150;4.508;2022-10-17T00:52:04;48.24;41.99;61.44;;
72466;Laerm;60471;52.150;4.508;2022-10-17T00:54:35;49.51;42.93;57.83;;
72466;Laerm;60471;52.150;4.508;2022-10-17T00:57:03;50.11;44.35;58.60;;
72466;Laerm;60471;52.150;4.508;2022-10-17T00:59:33;50.05;43.05;62.21;;
72466;Laerm;60471;52.150;4.508;2022-10-17T01:02:15;51.93;44.56;62.58;;
72466;Laerm;60471;52.150;4.508;2022-10-17T01:04:47;50.01;43.66;58.91;;
72466;Laerm;60471;52.150;4.508;2022-10-17T01:07:13;50.67;44.07;59.05;;
72466;Laerm;60471;52.150;4.508;2022-10-17T01:09:41;50.92;44.18;57.13;;
72466;Laerm;60471;52.150;4.508;2022-10-17T01:12:19;49.18;40.31;57.74;;
72466;Laerm;60471;52.150;4.508;2022-10-17T01:32:17;49.64;42.99;57.73;;
72466;Laerm;60471;52.150;4.508;2022-10-17T01:35:12;49.75;42.94;57.76;;
72466;Laerm;60471;52.150;4.508;2022-10-17T01:43:38;49.57;43.20;57.46;;
72466;Laerm;60471;52.150;4.508;2022-10-17T01:46:21;49.68;43.61;58.31;;
72466;Laerm;60471;52.150;4.508;2022-10-17T01:48:52;50.13;44.67;57.97;;
72466;Laerm;60471;52.150;4.508;2022-10-17T01:51:29;51.25;43.41;62.13;;
72466;Laerm;60471;52.150;4.508;2022-10-17T01:54:18;50.34;44.24;58.74;;
72466;Laerm;60471;52.150;4.508;2022-10-17T01:56:51;50.53;43.69;59.56;;
72466;Laerm;60471;52.150;4.508;2022-10-17T01:59:26;52.13;46.59;62.26;;
72466;Laerm;60471;52.150;4.508;2022-10-17T02:01:56;51.02;45.36;58.78;;
72466;Laerm;60471;52.150;4.508;2022-10-17T02:04:24;50.49;44.66;63.23;;
72466;Laerm;60471;52.150;4.508;2022-10-17T02:06:51;51.07;45.55;58.85;;
72466;Laerm;60471;52.150;4.508;2022-10-17T02:09:24;51.25;45.94;59.40;;
72466;Laerm;60471;52.150;4.508;2022-10-17T02:21:00;51.37;46.58;62.19;;
72466;Laerm;60471;52.150;4.508;2022-10-17T02:23:49;53.35;46.07;63.93;;
72466;Laerm;60471;52.150;4.508;2022-10-17T02:29:06;51.44;45.89;60.42;;
72466;Laerm;60471;52.150;4.508;2022-10-17T02:31:59;53.50;45.04;63.19;;
72466;Laerm;60471;52.150;4.508;2022-10-17T02:34:36;51.79;46.73;59.23;;
72466;Laerm;60471;52.150;4.508;2022-10-17T02:37:06;52.50;46.99;60.74;;
72466;Laerm;60471;52.150;4.508;2022-10-17T02:39:37;52.37;46.61;60.97;;
72466;Laerm;60471;52.150;4.508;2022-10-17T02:42:09;53.79;47.85;65.72;;
72466;Laerm;60471;52.150;4.508;2022-10-17T02:44:40;52.26;47.40;59.08;;
72466;Laerm;60471;52.150;4.508;2022-10-17T02:47:34;51.83;46.66;63.77;;
72466;Laerm;60471;52.150;4.508;2022-10-17T02:50:02;53.21;47.97;63.09;;
72466;Laerm;60471;52.150;4.508;2022-10-17T02:55:23;53.04;47.69;62.57;;
72466;Laerm;60471;52.150;4.508;2022-10-17T02:57:57;53.40;46.52;62.94;;
72466;Laerm;60471;52.150;4.508;2022-10-17T03:00:27;53.17;48.83;60.10;;
72466;Laerm;60471;52.150;4.508;2022-10-17T03:02:54;53.52;47.90;62.13;;
72466;Laerm;60471;52.150;4.508;2022-10-17T03:05:24;54.51;49.91;60.18;;
72466;Laerm;60471;52.150;4.508;2022-10-17T03:07:51;55.89;50.18;69.41;;
72466;Laerm;60471;52.150;4.508;2022-10-17T03:10:19;55.17;49.37;76.17;;
72466;Laerm;60471;52.150;4.508;2022-10-17T03:12:45;54.67;50.50;61.50;;
72466;Laerm;60471;52.150;4.508;2022-10-17T03:15:14;55.17;49.12;65.18;;
72466;Laerm;60471;52.150;4.508;2022-10-17T03:17:40;56.21;51.69;63.50;;
72466;Laerm;60471;52.150;4.508;2022-10-17T03:20:07;55.74;50.70;65.89;;
72466;Laerm;60471;52.150;4.508;2022-10-17T03:22:33;56.13;51.27;66.22;;
72466;Laerm;60471;52.150;4.508;2022-10-17T03:24:59;55.78;51.58;62.75;;
72466;Laerm;60471;52.150;4.508;2022-10-17T03:27:25;56.91;51.93;66.38;;
72466;Laerm;60471;52.150;4.508;2022-10-17T03:29:52;56.69;51.65;65.74;;
72466;Laerm;60471;52.150;4.508;2022-10-17T03:32:18;55.91;52.17;60.49;;
72466;Laerm;60471;52.150;4.508;2022-10-17T03:34:44;55.68;51.05;60.45;;
72466;Laerm;60471;52.150;4.508;2022-10-17T03:37:10;57.21;51.72;65.22;;
72466;Laerm;60471;52.150;4.508;2022-10-17T03:39:37;56.81;52.45;64.27;;
72466;Laerm;60471;52.150;4.508;2022-10-17T03:42:03;57.62;52.86;66.16;;
72466;Laerm;60471;52.150;4.508;2022-10-17T03:44:29;58.32;53.52;66.32;;
72466;Laerm;60471;52.150;4.508;2022-10-17T03:46:56;57.73;53.58;66.32;;
72466;Laerm;60471;52.150;4.508;2022-10-17T03:49:22;56.75;52.80;62.45;;
72466;Laerm;60471;52.150;4.508;2022-10-17T03:51:48;57.85;53.62;64.35;;
72466;Laerm;60471;52.150;4.508;2022-10-17T03:54:15;59.13;53.68;67.41;;
72466;Laerm;60471;52.150;4.508;2022-10-17T03:56:41;59.55;52.47;69.68;;
72466;Laerm;60471;52.150;4.508;2022-10-17T03:59:12;58.14;53.56;64.24;;
72466;Laerm;60471;52.150;4.508;2022-10-17T04:01:39;57.70;53.59;62.04;;
72466;Laerm;60471;52.150;4.508;2022-10-17T04:04:05;58.29;53.66;63.68;;
72466;Laerm;60471;52.150;4.508;2022-10-17T04:06:31;58.67;53.87;64.76;;
72466;Laerm;60471;52.150;4.508;2022-10-17T04:08:59;58.27;54.08;67.33;;
72466;Laerm;60471;52.150;4.508;2022-10-17T04:11:25;57.89;53.50;63.62;;
72466;Laerm;60471;52.150;4.508;2022-10-17T04:13:54;58.67;53.19;66.68;;
72466;Laerm;60471;52.150;4.508;2022-10-17T04:16:23;59.20;55.18;65.24;;
72466;Laerm;60471;52.150;4.508;2022-10-17T04:18:55;58.99;54.79;64.11;;
72466;Laerm;60471;52.150;4.508;2022-10-17T04:21:24;58.79;54.93;69.84;;
72466;Laerm;60471;52.150;4.508;2022-10-17T04:23:58;59.53;53.73;65.21;;
72466;Laerm;60471;52.150;4.508;2022-10-17T04:26:26;59.42;54.27;69.63;;
72466;Laerm;60471;52.150;4.508;2022-10-17T04:28:52;59.87;55.21;71.46;;
72466;Laerm;60471;52.150;4.508;2022-10-17T04:31:19;59.87;54.43;67.15;;
72466;Laerm;60471;52.150;4.508;2022-10-17T04:33:49;59.11;53.95;65.78;;
72466;Laerm;60471;52.150;4.508;2022-10-17T04:36:18;59.33;54.31;67.10;;
72466;Laerm;60471;52.150;4.508;2022-10-17T04:38:45;59.50;54.59;67.29;;
72466;Laerm;60471;52.150;4.508;2022-10-17T04:41:14;60.30;55.52;66.92;;
72466;Laerm;60471;52.150;4.508;2022-10-17T04:43:41;60.02;55.16;67.31;;
72466;Laerm;60471;52.150;4.508;2022-10-17T04:46:11;58.92;53.95;65.14;;
72466;Laerm;60471;52.150;4.508;2022-10-17T04:48:39;60.14;53.97;70.97;;
72466;Laerm;60471;52.150;4.508;2022-10-17T04:51:13;60.22;53.76;68.67;;
72466;Laerm;60471;52.150;4.508;2022-10-17T04:53:41;59.00;52.77;65.60;;
72466;Laerm;60471;52.150;4.508;2022-10-17T04:56:14;58.09;53.23;67.29;;
72466;Laerm;60471;52.150;4.508;2022-10-17T04:58:42;59.06;52.58;66.90;;
72466;Laerm;60471;52.150;4.508;2022-10-17T05:01:16;60.12;53.44;72.01;;
72466;Laerm;60471;52.150;4.508;2022-10-17T05:03:43;58.66;53.69;66.01;;
72466;Laerm;60471;52.150;4.508;2022-10-17T05:06:15;59.30;54.05;68.35;;
72466;Laerm;60471;52.150;4.508;2022-10-17T05:08:42;58.95;53.78;65.40;;
72466;Laerm;60471;52.150;4.508;2022-10-17T05:11:27;58.79;54.14;65.27;;
72466;Laerm;60471;52.150;4.508;2022-10-17T05:13:59;58.65;53.97;66.10;;
72466;Laerm;60471;52.150;4.508;2022-10-17T05:16:26;58.27;53.87;65.69;;
72466;Laerm;60471;52.150;4.508;2022-10-17T05:18:55;60.61;54.66;70.30;;
72466;Laerm;60471;52.150;4.508;2022-10-17T05:21:24;58.57;53.51;65.23;;
72466;Laerm;60471;52.150;4.508;2022-10-17T05:23:51;59.02;54.16;65.47;;
72466;Laerm;60471;52.150;4.508;2022-10-17T05:26:18;59.53;55.17;64.44;;
72466;Laerm;60471;52.150;4.508;2022-10-17T05:28:44;59.59;54.64;67.55;;
72466;Laerm;60471;52.150;4.508;2022-10-17T05:31:11;59.50;53.80;64.82;;
72466;Laerm;60471;52.150;4.508;2022-10-17T05:33:38;60.67;54.64;68.01;;
72466;Laerm;60471;52.150;4.508;2022-10-17T05:36:06;60.50;54.86;67.66;;
72466;Laerm;60471;52.150;4.508;2022-10-17T05:38:33;59.03;53.72;64.50;;
72466;Laerm;60471;52.150;4.508;2022-10-17T05:41:03;59.80;54.79;65.49;;
72466;Laerm;60471;52.150;4.508;2022-10-17T05:43:31;59.39;54.45;65.01;;
72466;Laerm;60471;52.150;4.508;2022-10-17T05:45:58;60.41;54.23;67.93;;
72466;Laerm;60471;52.150;4.508;2022-10-17T05:48:27;59.79;54.90;70.85;;
72466;Laerm;60471;52.150;4.508;2022-10-17T05:50:58;60.86;54.75;66.82;;
72466;Laerm;60471;52.150;4.508;2022-10-17T05:53:25;59.98;54.99;65.59;;
72466;Laerm;60471;52.150;4.508;2022-10-17T05:55:57;59.82;55.10;69.29;;
72466;Laerm;60471;52.150;4.508;2022-10-17T05:58:24;59.86;53.73;67.42;;
72466;Laerm;60471;52.150;4.508;2022-10-17T06:00:50;60.39;55.68;73.54;;
72466;Laerm;60471;52.150;4.508;2022-10-17T06:03:16;59.67;54.27;68.82;;
72466;Laerm;60471;52.150;4.508;2022-10-17T06:05:42;59.04;53.97;67.91;;
72466;Laerm;60471;52.150;4.508;2022-10-17T06:08:12;60.30;54.40;73.63;;
72466;Laerm;60471;52.150;4.508;2022-10-17T06:10:38;60.00;52.95;71.65;;
72466;Laerm;60471;52.150;4.508;2022-10-17T06:13:04;59.93;54.17;66.18;;
72466;Laerm;60471;52.150;4.508;2022-10-17T06:15:31;59.51;52.51;65.87;;
72466;Laerm;60471;52.150;4.508;2022-10-17T06:17:57;59.79;52.19;65.08;;
72466;Laerm;60471;52.150;4.508;2022-10-17T06:20:23;60.25;53.64;81.67;;
72466;Laerm;60471;52.150;4.508;2022-10-17T06:22:49;60.37;54.17;65.50;;
72466;Laerm;60471;52.150;4.508;2022-10-17T06:25:15;59.10;53.35;67.62;;
72466;Laerm;60471;52.150;4.508;2022-10-17T06:27:42;59.14;52.38;69.29;;
72466;Laerm;60471;52.150;4.508;2022-10-17T06:30:08;59.36;53.12;70.28;;
72466;Laerm;60471;52.150;4.508;2022-10-17T06:32:34;60.47;52.77;71.46;;
72466;Laerm;60471;52.150;4.508;2022-10-17T06:35:00;60.16;53.28;68.00;;
72466;Laerm;60471;52.150;4.508;2022-10-17T06:37:31;59.22;53.31;67.09;;
72466;Laerm;60471;52.150;4.508;2022-10-17T06:39:58;61.72;54.06;71.84;;
72466;Laerm;60471;52.150;4.508;2022-10-17T06:42:24;59.91;54.23;64.90;;
72466;Laerm;60471;52.150;4.508;2022-10-17T06:44:50;59.93;54.08;65.84;;
72466;Laerm;60471;52.150;4.508;2022-10-17T06:47:17;61.68;55.55;69.92;;
72466;Laerm;60471;52.150;4.508;2022-10-17T06:49:43;60.19;53.88;77.74;;
72466;Laerm;60471;52.150;4.508;2022-10-17T06:52:09;59.96;54.18;79.88;;
72466;Laerm;60471;52.150;4.508;2022-10-17T06:54:35;59.57;54.40;74.95;;
72466;Laerm;60471;52.150;4.508;2022-10-17T06:57:02;60.80;54.47;68.24;;
72466;Laerm;60471;52.150;4.508;2022-10-17T06:59:28;60.61;53.97;68.26;;
72466;Laerm;60471;52.150;4.508;2022-10-17T07:01:54;60.14;54.36;67.17;;
72466;Laerm;60471;52.150;4.508;2022-10-17T07:04:20;59.60;53.75;65.70;;
72466;Laerm;60471;52.150;4.508;2022-10-17T07:06:47;60.10;55.02;67.30;;
72466;Laerm;60471;52.150;4.508;2022-10-17T07:09:13;59.88;54.95;66.44;;
72466;Laerm;60471;52.150;4.508;2022-10-17T07:11:39;60.54;53.59;68.03;;
72466;Laerm;60471;52.150;4.508;2022-10-17T07:14:05;59.51;54.06;65.61;;
72466;Laerm;60471;52.150;4.508;2022-10-17T07:16:32;60.81;52.66;71.17;;
72466;Laerm;60471;52.150;4.508;2022-10-17T07:18:59;60.41;53.47;67.37;;
72466;Laerm;60471;52.150;4.508;2022-10-17T07:21:25;59.91;54.75;67.12;;
72466;Laerm;60471;52.150;4.508;2022-10-17T07:23:51;59.59;54.32;66.11;;
72466;Laerm;60471;52.150;4.508;2022-10-17T07:26:19;60.36;54.47;73.67;;
72466;Laerm;60471;52.150;4.508;2022-10-17T07:28:51;59.12;52.93;67.24;;
72466;Laerm;60471;52.150;4.508;2022-10-17T07:31:20;58.99;54.23;67.65;;
72466;Laerm;60471;52.150;4.508;2022-10-17T07:33:48;60.13;54.13;66.59;;
72466;Laerm;60471;52.150;4.508;2022-10-17T07:36:15;59.60;53.73;71.87;;
72466;Laerm;60471;52.150;4.508;2022-10-17T07:38:42;60.22;55.23;70.80;;
72466;Laerm;60471;52.150;4.508;2022-10-17T07:41:10;60.15;53.21;70.05;;
72466;Laerm;60471;52.150;4.508;2022-10-17T07:43:37;61.30;53.33;79.54;;
72466;Laerm;60471;52.150;4.508;2022-10-17T07:46:04;60.46;55.31;68.84;;
72466;Laerm;60471;52.150;4.508;2022-10-17T07:48:31;60.12;54.18;69.36;;
72466;Laerm;60471;52.150;4.508;2022-10-17T07:51:02;60.75;53.28;78.13;;
72466;Laerm;60471;52.150;4.508;2022-10-17T07:53:28;60.52;55.90;68.25;;
72466;Laerm;60471;52.150;4.508;2022-10-17T07:55:55;60.91;55.84;75.05;;
72466;Laerm;60471;52.150;4.508;2022-10-17T07:58:21;62.16;55.30;82.10;;
72466;Laerm;60471;52.150;4.508;2022-10-17T08:00:47;60.81;55.29;77.98;;
72466;Laerm;60471;52.150;4.508;2022-10-17T08:03:14;61.30;55.48;71.74;;
72466;Laerm;60471;52.150;4.508;2022-10-17T08:05:40;60.07;55.94;71.19;;
72466;Laerm;60471;52.150;4.508;2022-10-17T08:08:06;60.69;56.08;70.91;;
72466;Laerm;60471;52.150;4.508;2022-10-17T08:10:32;60.25;56.00;71.93;;
72466;Laerm;60471;52.150;4.508;2022-10-17T08:13:00;61.15;55.98;76.65;;
72466;Laerm;60471;52.150;4.508;2022-10-17T08:15:26;61.14;54.90;75.88;;
72466;Laerm;60471;52.150;4.508;2022-10-17T08:17:53;62.02;56.05;77.29;;
72466;Laerm;60471;52.150;4.508;2022-10-17T08:20:20;61.08;56.01;76.00;;
72466;Laerm;60471;52.150;4.508;2022-10-17T08:22:53;61.23;56.32;77.49;;
72466;Laerm;60471;52.150;4.508;2022-10-17T08:25:20;61.21;55.64;76.55;;
72466;Laerm;60471;52.150;4.508;2022-10-17T08:27:47;61.58;56.77;77.33;;
72466;Laerm;60471;52.150;4.508;2022-10-17T08:30:14;62.70;57.84;76.65;;
72466;Laerm;60471;52.150;4.508;2022-10-17T08:32:40;62.17;56.64;72.32;;
72466;Laerm;60471;52.150;4.508;2022-10-17T08:35:07;61.28;55.23;68.99;;
72466;Laerm;60471;52.150;4.508;2022-10-17T08:37:34;59.96;55.06;70.63;;
72466;Laerm;60471;52.150;4.508;2022-10-17T08:40:00;59.22;54.40;68.69;;
72466;Laerm;60471;52.150;4.508;2022-10-17T08:42:47;60.27;54.56;66.99;;
72466;Laerm;60471;52.150;4.508;2022-10-17T08:45:54;61.67;55.07;67.91;;
72466;Laerm;60471;52.150;4.508;2022-10-17T08:48:28;60.19;55.29;70.49;;
72466;Laerm;60471;52.150;4.508;2022-10-17T08:53:46;61.80;56.13;67.07;;
72466;Laerm;60471;52.150;4.508;2022-10-17T08:56:25;59.70;54.87;65.38;;
72466;Laerm;60471;52.150;4.508;2022-10-17T08:58:53;61.44;56.29;67.75;;
72466;Laerm;60471;52.150;4.508;2022-10-17T09:01:32;60.56;55.22;70.13;;
72466;Laerm;60471;52.150;4.508;2022-10-17T09:04:20;60.81;55.92;67.19;;
72466;Laerm;60471;52.150;4.508;2022-10-17T09:07:17;60.76;55.47;69.08;;
72466;Laerm;60471;52.150;4.508;2022-10-17T09:16:35;61.10;54.61;67.45;;
72466;Laerm;60471;52.150;4.508;2022-10-17T09:19:22;60.65;55.17;68.56;;
72466;Laerm;60471;52.150;4.508;2022-10-17T09:21:59;60.97;55.76;68.11;;
72466;Laerm;60471;52.150;4.508;2022-10-17T09:24:42;59.39;53.93;66.20;;
72466;Laerm;60471;52.150;4.508;2022-10-17T09:27:37;59.73;53.34;67.04;;
72466;Laerm;60471;52.150;4.508;2022-10-17T09:30:18;59.68;54.23;66.88;;
72466;Laerm;60471;52.150;4.508;2022-10-17T09:32:46;59.31;54.08;64.81;;
72466;Laerm;60471;52.150;4.508;2022-10-17T09:35:13;59.82;54.42;66.43;;
72466;Laerm;60471;52.150;4.508;2022-10-17T09:37:41;59.89;54.68;65.43;;
72466;Laerm;60471;52.150;4.508;2022-10-17T09:40:20;60.60;54.70;66.68;;
72466;Laerm;60471;52.150;4.508;2022-10-17T09:42:50;60.64;53.60;66.48;;
72466;Laerm;60471;52.150;4.508;2022-10-17T09:45:22;58.75;53.98;65.02;;
72466;Laerm;60471;52.150;4.508;2022-10-17T09:48:13;59.49;53.55;65.73;;
72466;Laerm;60471;52.150;4.508;2022-10-17T09:50:45;60.92;55.45;66.13;;
72466;Laerm;60471;52.150;4.508;2022-10-17T09:53:19;60.50;54.55;69.54;;
72466;Laerm;60471;52.150;4.508;2022-10-17T09:55:52;60.05;54.85;66.41;;
72466;Laerm;60471;52.150;4.508;2022-10-17T09:58:23;59.84;54.58;66.13;;
72466;Laerm;60471;52.150;4.508;2022-10-17T10:01:16;59.68;52.05;68.13;;
72466;Laerm;60471;52.150;4.508;2022-10-17T10:03:43;60.28;55.00;65.62;;
72466;Laerm;60471;52.150;4.508;2022-10-17T10:06:20;60.91;55.01;66.56;;
72466;Laerm;60471;52.150;4.508;2022-10-17T10:08:51;59.30;53.86;66.28;;
72466;Laerm;60471;52.150;4.508;2022-10-17T10:11:24;60.28;54.46;68.71;;
72466;Laerm;60471;52.150;4.508;2022-10-17T10:13:51;58.74;53.17;65.64;;
72466;Laerm;60471;52.150;4.508;2022-10-17T10:16:32;58.58;52.42;64.94;;
72466;Laerm;60471;52.150;4.508;2022-10-17T10:18:58;59.88;54.15;66.30;;
72466;Laerm;60471;52.150;4.508;2022-10-17T10:21:26;59.81;53.68;66.70;;
72466;Laerm;60471;52.150;4.508;2022-10-17T10:26:46;59.67;53.12;67.64;;
72466;Laerm;60471;52.150;4.508;2022-10-17T10:31:52;59.15;54.03;68.80;;
72466;Laerm;60471;52.150;4.508;2022-10-17T10:34:26;60.37;53.82;68.68;;
72466;Laerm;60471;52.150;4.508;2022-10-17T10:37:01;62.38;55.98;69.25;;
72466;Laerm;60471;52.150;4.508;2022-10-17T10:42:02;60.61;54.99;66.45;;
72466;Laerm;60471;52.150;4.508;2022-10-17T10:44:31;60.74;55.33;66.72;;
72466;Laerm;60471;52.150;4.508;2022-10-17T10:47:19;59.24;53.75;66.01;;
72466;Laerm;60471;52.150;4.508;2022-10-17T10:49:47;61.12;54.77;74.85;;
72466;Laerm;60471;52.150;4.508;2022-10-17T10:52:31;60.14;54.01;67.22;;
72466;Laerm;60471;52.150;4.508;2022-10-17T10:55:24;59.60;54.03;66.85;;
72466;Laerm;60471;52.150;4.508;2022-10-17T10:58:02;59.86;53.86;65.86;;
72466;Laerm;60471;52.150;4.508;2022-10-17T11:00:32;61.17;55.41;67.00;;
72466;Laerm;60471;52.150;4.508;2022-10-17T11:03:20;60.41;55.50;65.97;;
72466;Laerm;60471;52.150;4.508;2022-10-17T11:06:04;60.75;55.70;66.91;;
72466;Laerm;60471;52.150;4.508;2022-10-17T11:08:48;60.85;55.42;67.33;;
72466;Laerm;60471;52.150;4.508;2022-10-17T11:11:31;61.47;55.19;69.66;;
72466;Laerm;60471;52.150;4.508;2022-10-17T11:14:08;65.35;60.71;73.65;;
72466;Laerm;60471;52.150;4.508;2022-10-17T11:23:13;63.00;57.22;67.43;;
72466;Laerm;60471;52.150;4.508;2022-10-17T11:25:46;65.89;59.44;79.00;;
72466;Laerm;60471;52.150;4.508;2022-10-17T11:28:17;65.10;57.06;81.33;;
72466;Laerm;60471;52.150;4.508;2022-10-17T11:33:41;60.29;54.89;66.26;;
72466;Laerm;60471;52.150;4.508;2022-10-17T11:36:10;60.01;53.99;69.75;;
72466;Laerm;60471;52.150;4.508;2022-10-17T11:38:42;61.30;57.05;71.43;;
72466;Laerm;60471;52.150;4.508;2022-10-17T11:41:31;62.37;54.92;70.75;;
72466;Laerm;60471;52.150;4.508;2022-10-17T11:44:33;59.69;54.47;74.96;;
72466;Laerm;60471;52.150;4.508;2022-10-17T11:50:02;60.25;54.16;66.48;;
72466;Laerm;60471;52.150;4.508;2022-10-17T11:52:41;60.91;55.30;68.01;;
72466;Laerm;60471;52.150;4.508;2022-10-17T11:55:22;59.99;54.24;74.77;;
72466;Laerm;60471;52.150;4.508;2022-10-17T11:58:31;59.77;54.82;68.40;;
72466;Laerm;60471;52.150;4.508;2022-10-17T12:01:36;62.20;54.71;72.30;;
72466;Laerm;60471;52.150;4.508;2022-10-17T12:04:25;58.74;52.32;65.57;;
72466;Laerm;60471;52.150;4.508;2022-10-17T12:07:13;59.75;54.01;67.17;;
72466;Laerm;60471;52.150;4.508;2022-10-17T12:12:34;61.92;57.16;67.14;;
72466;Laerm;60471;52.150;4.508;2022-10-17T12:17:55;60.25;52.86;73.09;;
72466;Laerm;60471;52.150;4.508;2022-10-17T12:20:25;59.11;53.23;76.25;;
72466;Laerm;60471;52.150;4.508;2022-10-17T12:26:03;60.83;54.25;67.52;;
72466;Laerm;60471;52.150;4.508;2022-10-17T12:33:59;60.24;54.72;71.62;;
72466;Laerm;60471;52.150;4.508;2022-10-17T12:49:47;59.60;53.64;71.56;;
72466;Laerm;60471;52.150;4.508;2022-10-17T12:54:56;59.53;54.23;65.65;;
72466;Laerm;60471;52.150;4.508;2022-10-17T13:03:18;60.45;54.85;66.48;;
72466;Laerm;60471;52.150;4.508;2022-10-17T13:05:51;59.68;53.57;68.06;;
72466;Laerm;60471;52.150;4.508;2022-10-17T13:08:24;61.28;54.39;71.32;;
72466;Laerm;60471;52.150;4.508;2022-10-17T13:10:53;59.50;54.11;70.12;;
72466;Laerm;60471;52.150;4.508;2022-10-17T13:13:32;59.61;54.08;69.46;;
72466;Laerm;60471;52.150;4.508;2022-10-17T13:16:01;60.83;54.40;68.17;;
72466;Laerm;60471;52.150;4.508;2022-10-17T13:18:28;60.41;53.97;66.35;;
72466;Laerm;60471;52.150;4.508;2022-10-17T13:21:14;59.36;52.39;67.70;;
72466;Laerm;60471;52.150;4.508;2022-10-17T13:23:41;59.80;53.88;67.45;;
72466;Laerm;60471;52.150;4.508;2022-10-17T13:26:27;61.08;50.89;82.28;;
72466;Laerm;60471;52.150;4.508;2022-10-17T13:29:11;59.21;53.98;66.25;;
72466;Laerm;60471;52.150;4.508;2022-10-17T13:31:40;59.79;53.17;66.26;;
72466;Laerm;60471;52.150;4.508;2022-10-17T13:34:33;58.68;53.73;65.53;;
72466;Laerm;60471;52.150;4.508;2022-10-17T13:37:01;59.13;52.72;65.67;;
72466;Laerm;60471;52.150;4.508;2022-10-17T13:39:38;60.65;53.44;87.06;;
72466;Laerm;60471;52.150;4.508;2022-10-17T13:42:16;59.38;52.49;72.69;;
72466;Laerm;60471;52.150;4.508;2022-10-17T13:44:45;58.57;51.58;65.08;;
72466;Laerm;60471;52.150;4.508;2022-10-17T13:47:27;59.61;52.61;68.06;;
72466;Laerm;60471;52.150;4.508;2022-10-17T13:49:57;59.77;53.94;68.14;;
72466;Laerm;60471;52.150;4.508;2022-10-17T13:52:27;59.11;52.54;74.09;;
72466;Laerm;60471;52.150;4.508;2022-10-17T13:55:05;59.86;50.67;74.11;;
72466;Laerm;60471;52.150;4.508;2022-10-17T13:57:32;60.03;51.91;69.39;;
72466;Laerm;60471;52.150;4.508;2022-10-17T14:00:03;60.76;55.92;78.06;;
72466;Laerm;60471;52.150;4.508;2022-10-17T14:02:34;60.58;53.28;74.95;;
72466;Laerm;60471;52.150;4.508;2022-10-17T14:10:06;59.19;51.32;71.00;;
72466;Laerm;60471;52.150;4.508;2022-10-17T14:12:42;58.83;51.12;69.08;;
72466;Laerm;60471;52.150;4.508;2022-10-17T14:15:13;58.26;52.65;66.11;;
72466;Laerm;60471;52.150;4.508;2022-10-17T14:17:43;59.39;50.95;67.59;;
72466;Laerm;60471;52.150;4.508;2022-10-17T14:20:22;59.65;51.61;68.07;;
72466;Laerm;60471;52.150;4.508;2022-10-17T14:22:49;60.41;54.29;77.43;;
72466;Laerm;60471;52.150;4.508;2022-10-17T14:25:30;59.28;51.83;71.08;;
72466;Laerm;60471;52.150;4.508;2022-10-17T14:28:13;60.46;53.28;67.55;;
72466;Laerm;60471;52.150;4.508;2022-10-17T14:33:35;57.87;51.81;66.18;;
72466;Laerm;60471;52.150;4.508;2022-10-17T14:36:02;58.83;52.50;70.37;;
72466;Laerm;60471;52.150;4.508;2022-10-17T14:38:30;60.83;54.00;72.20;;
72466;Laerm;60471;52.150;4.508;2022-10-17T14:41:28;60.03;52.07;72.09;;
72466;Laerm;60471;52.150;4.508;2022-10-17T14:44:00;59.48;51.28;69.59;;
72466;Laerm;60471;52.150;4.508;2022-10-17T14:46:27;59.54;52.27;67.58;;
72466;Laerm;60471;52.150;4.508;2022-10-17T14:49:05;60.41;52.91;68.10;;
72466;Laerm;60471;52.150;4.508;2022-10-17T14:51:33;58.86;52.53;65.24;;
72466;Laerm;60471;52.150;4.508;2022-10-17T14:54:24;59.22;53.26;66.46;;
72466;Laerm;60471;52.150;4.508;2022-10-17T14:56:52;59.63;52.59;72.50;;
72466;Laerm;60471;52.150;4.508;2022-10-17T14:59:19;59.45;53.48;68.31;;
72466;Laerm;60471;52.150;4.508;2022-10-17T15:01:49;58.59;51.11;67.08;;
72466;Laerm;60471;52.150;4.508;2022-10-17T15:04:16;58.42;53.11;65.82;;
72466;Laerm;60471;52.150;4.508;2022-10-17T15:06:43;59.72;53.03;67.97;;
72466;Laerm;60471;52.150;4.508;2022-10-17T15:09:10;59.61;53.53;65.93;;
72466;Laerm;60471;52.150;4.508;2022-10-17T15:11:37;59.47;53.30;65.89;;
72466;Laerm;60471;52.150;4.508;2022-10-17T15:14:03;60.67;53.51;68.23;;
72466;Laerm;60471;52.150;4.508;2022-10-17T15:16:31;59.93;53.74;67.22;;
72466;Laerm;60471;52.150;4.508;2022-10-17T15:18:58;60.07;53.97;70.70;;
72466;Laerm;60471;52.150;4.508;2022-10-17T15:21:28;59.72;53.34;67.19;;
72466;Laerm;60471;52.150;4.508;2022-10-17T15:23:54;59.10;52.70;67.45;;
72466;Laerm;60471;52.150;4.508;2022-10-17T15:26:24;59.88;53.64;65.89;;
72466;Laerm;60471;52.150;4.508;2022-10-17T15:28:52;59.86;53.80;68.74;;
72466;Laerm;60471;52.150;4.508;2022-10-17T15:31:22;59.14;52.56;65.86;;
72466;Laerm;60471;52.150;4.508;2022-10-17T15:33:49;60.77;53.62;68.99;;
72466;Laerm;60471;52.150;4.508;2022-10-17T15:36:39;60.32;53.97;68.71;;
72466;Laerm;60471;52.150;4.508;2022-10-17T15:39:06;59.92;54.68;67.18;;
72466;Laerm;60471;52.150;4.508;2022-10-17T15:41:34;59.95;54.60;67.22;;
72466;Laerm;60471;52.150;4.508;2022-10-17T15:44:00;61.39;54.81;81.24;;
72466;Laerm;60471;52.150;4.508;2022-10-17T15:46:29;61.03;54.56;78.91;;
72466;Laerm;60471;52.150;4.508;2022-10-17T15:49:03;59.64;53.87;68.98;;
72466;Laerm;60471;52.150;4.508;2022-10-17T15:51:29;61.19;54.81;79.46;;
72466;Laerm;60471;52.150;4.508;2022-10-17T15:53:56;61.18;53.44;83.07;;
72466;Laerm;60471;52.150;4.508;2022-10-17T15:56:27;59.56;52.96;67.74;;
72466;Laerm;60471;52.150;4.508;2022-10-17T15:58:55;62.55;53.71;73.65;;
72466;Laerm;60471;52.150;4.508;2022-10-17T16:01:29;58.49;53.74;66.35;;